sensor_id;sensor_type;location;lat;lon;timestamp;P1;durP1;ratioP1;P2;durP2;ratioP2
70071;SDS011;57434;42.794;23.302;2022-10-30T00:00:47;18.80;;;7.88;;
70071;SDS011;57434;42.794;23.302;2022-10-30T00:03:14;17.60;;;6.50;;
70071;SDS011;57434;42.794;23.302;2022-10-30T00:05:43;13.88;;;6.88;;
70071;SDS011;57434;42.794;23.302;2022-10-30T00:08:13;15.20;;;6.73;;
70071;SDS011;57434;42.794;23.302;2022-10-30T00:10:41;14.60;;;7.10;;
70071;SDS011;57434;42.794;23.302;2022-10-30T00:13:09;18.48;;;6.68;;
70071;SDS011;57434;42.794;23.302;2022-10-30T00:15:37;19.63;;;7.18;;
70071;SDS011;57434;42.794;23.302;2022-10-30T00:18:04;22.83;;;7.80;;
70071;SDS011;57434;42.794;23.302;2022-10-30T00:20:31;12.60;;;6.27;;
70071;SDS011;57434;42.794;23.302;2022-10-30T00:22:58;15.65;;;6.97;;
70071;SDS011;57434;42.794;23.302;2022-10-30T00:25:26;14.07;;;6.45;;
70071;SDS011;57434;42.794;23.302;2022-10-30T00:27:53;16.75;;;7.10;;
70071;SDS011;57434;42.794;23.302;2022-10-30T00:30:20;13.82;;;6.35;;
70071;SDS011;57434;42.794;23.302;2022-10-30T00:32:47;15.47;;;6.10;;
70071;SDS011;57434;42.794;23.302;2022-10-30T00:35:14;16.02;;;6.47;;
70071;SDS011;57434;42.794;23.302;2022-10-30T00:37:41;14.93;;;6.50;;
70071;SDS011;57434;42.794;23.302;2022-10-30T00:40:11;13.43;;;7.32;;
70071;SDS011;57434;42.794;23.302;2022-10-30T00:42:40;16.45;;;7.10;;
70071;SDS011;57434;42.794;23.302;2022-10-30T00:45:11;16.07;;;7.53;;
70071;SDS011;57434;42.794;23.302;2022-10-30T00:47:42;15.98;;;6.75;;
70071;SDS011;57434;42.794;23.302;2022-10-30T00:50:24;12.40;;;6.57;;
70071;SDS011;57434;42.794;23.302;2022-10-30T00:53:04;17.48;;;7.78;;
70071;SDS011;57434;42.794;23.302;2022-10-30T00:55:34;16.25;;;6.75;;
70071;SDS011;57434;42.794;23.302;2022-10-30T00:58:09;17.17;;;7.70;;
70071;SDS011;57434;42.794;23.302;2022-10-30T01:00:41;11.65;;;6.43;;
70071;SDS011;57434;42.794;23.302;2022-10-30T01:03:11;14.55;;;6.95;;
70071;SDS011;57434;42.794;23.302;2022-10-30T01:05:39;14.70;;;6.35;;
70071;SDS011;57434;42.794;23.302;2022-10-30T01:08:08;12.90;;;7.05;;
70071;SDS011;57434;42.794;23.302;2022-10-30T01:10:35;19.73;;;8.10;;
70071;SDS011;57434;42.794;23.302;2022-10-30T01:13:03;13.10;;;7.78;;
70071;SDS011;57434;42.794;23.302;2022-10-30T01:15:32;12.30;;;6.60;;
70071;SDS011;57434;42.794;23.302;2022-10-30T01:18:46;15.10;;;6.30;;
70071;SDS011;57434;42.794;23.302;2022-10-30T01:40:34;34.47;;;15.20;;
70071;SDS011;57434;42.794;23.302;2022-10-30T01:43:02;31.15;;;14.43;;
70071;SDS011;57434;42.794;23.302;2022-10-30T01:45:35;37.35;;;15.48;;
70071;SDS011;57434;42.794;23.302;2022-10-30T01:54:22;31.00;;;14.32;;
70071;SDS011;57434;42.794;23.302;2022-10-30T01:59:57;34.63;;;14.60;;
70071;SDS011;57434;42.794;23.302;2022-10-30T02:02:29;42.05;;;17.13;;
70071;SDS011;57434;42.794;23.302;2022-10-30T02:04:57;38.83;;;15.37;;
70071;SDS011;57434;42.794;23.302;2022-10-30T02:07:26;45.35;;;15.98;;
70071;SDS011;57434;42.794;23.302;2022-10-30T02:09:53;34.53;;;12.93;;
70071;SDS011;57434;42.794;23.302;2022-10-30T02:12:21;43.65;;;14.85;;
70071;SDS011;57434;42.794;23.302;2022-10-30T02:14:50;34.95;;;13.88;;
70071;SDS011;57434;42.794;23.302;2022-10-30T02:17:22;32.33;;;12.33;;
70071;SDS011;57434;42.794;23.302;2022-10-30T02:19:50;33.30;;;13.45;;
70071;SDS011;57434;42.794;23.302;2022-10-30T02:22:17;35.67;;;13.10;;
70071;SDS011;57434;42.794;23.302;2022-10-30T02:24:44;33.22;;;11.85;;
70071;SDS011;57434;42.794;23.302;2022-10-30T02:27:11;26.20;;;10.73;;
70071;SDS011;57434;42.794;23.302;2022-10-30T02:29:39;25.40;;;10.53;;
70071;SDS011;57434;42.794;23.302;2022-10-30T02:32:05;28.23;;;10.73;;
70071;SDS011;57434;42.794;23.302;2022-10-30T02:34:33;21.27;;;9.18;;
70071;SDS011;57434;42.794;23.302;2022-10-30T02:37:00;19.90;;;9.10;;
70071;SDS011;57434;42.794;23.302;2022-10-30T02:39:27;18.52;;;7.32;;
70071;SDS011;57434;42.794;23.302;2022-10-30T02:41:54;21.93;;;7.80;;
70071;SDS011;57434;42.794;23.302;2022-10-30T02:44:21;15.52;;;6.60;;
70071;SDS011;57434;42.794;23.302;2022-10-30T02:46:48;17.55;;;7.80;;
70071;SDS011;57434;42.794;23.302;2022-10-30T02:49:15;13.15;;;6.13;;
70071;SDS011;57434;42.794;23.302;2022-10-30T02:51:42;15.40;;;5.78;;
70071;SDS011;57434;42.794;23.302;2022-10-30T02:54:09;13.33;;;5.17;;
70071;SDS011;57434;42.794;23.302;2022-10-30T02:56:38;14.25;;;5.47;;
70071;SDS011;57434;42.794;23.302;2022-10-30T02:59:06;17.30;;;8.98;;
70071;SDS011;57434;42.794;23.302;2022-10-30T03:01:33;12.20;;;6.50;;
70071;SDS011;57434;42.794;23.302;2022-10-30T03:04:01;13.68;;;7.32;;
70071;SDS011;57434;42.794;23.302;2022-10-30T03:06:28;13.80;;;6.80;;
70071;SDS011;57434;42.794;23.302;2022-10-30T03:08:55;12.05;;;6.53;;
70071;SDS011;57434;42.794;23.302;2022-10-30T03:11:22;11.88;;;6.43;;
70071;SDS011;57434;42.794;23.302;2022-10-30T03:13:49;11.48;;;5.00;;
70071;SDS011;57434;42.794;23.302;2022-10-30T03:16:17;12.55;;;6.70;;
70071;SDS011;57434;42.794;23.302;2022-10-30T03:18:47;11.50;;;5.93;;
70071;SDS011;57434;42.794;23.302;2022-10-30T03:21:18;13.63;;;6.22;;
70071;SDS011;57434;42.794;23.302;2022-10-30T03:23:46;13.13;;;6.03;;
70071;SDS011;57434;42.794;23.302;2022-10-30T03:26:14;12.48;;;4.97;;
70071;SDS011;57434;42.794;23.302;2022-10-30T03:28:41;11.43;;;5.75;;
70071;SDS011;57434;42.794;23.302;2022-10-30T03:31:09;12.97;;;5.27;;
70071;SDS011;57434;42.794;23.302;2022-10-30T03:33:40;10.55;;;4.88;;
70071;SDS011;57434;42.794;23.302;2022-10-30T03:36:08;9.38;;;4.57;;
70071;SDS011;57434;42.794;23.302;2022-10-30T03:38:36;8.38;;;4.15;;
70071;SDS011;57434;42.794;23.302;2022-10-30T03:41:04;10.43;;;4.72;;
70071;SDS011;57434;42.794;23.302;2022-10-30T03:43:31;11.73;;;4.83;;
70071;SDS011;57434;42.794;23.302;2022-10-30T03:45:59;10.48;;;4.60;;
70071;SDS011;57434;42.794;23.302;2022-10-30T03:48:27;9.10;;;4.28;;
70071;SDS011;57434;42.794;23.302;2022-10-30T03:50:55;10.25;;;5.60;;
70071;SDS011;57434;42.794;23.302;2022-10-30T03:53:24;9.80;;;5.03;;
70071;SDS011;57434;42.794;23.302;2022-10-30T03:55:52;13.37;;;5.43;;
70071;SDS011;57434;42.794;23.302;2022-10-30T03:58:24;10.18;;;4.68;;
70071;SDS011;57434;42.794;23.302;2022-10-30T04:00:52;12.30;;;5.72;;
70071;SDS011;57434;42.794;23.302;2022-10-30T04:03:19;12.20;;;5.53;;
70071;SDS011;57434;42.794;23.302;2022-10-30T04:05:46;10.20;;;4.93;;
70071;SDS011;57434;42.794;23.302;2022-10-30T04:08:13;12.23;;;5.00;;
70071;SDS011;57434;42.794;23.302;2022-10-30T04:10:44;8.90;;;4.57;;
70071;SDS011;57434;42.794;23.302;2022-10-30T04:13:13;12.75;;;5.72;;
70071;SDS011;57434;42.794;23.302;2022-10-30T04:15:41;13.95;;;5.10;;
70071;SDS011;57434;42.794;23.302;2022-10-30T04:18:09;10.73;;;5.15;;
70071;SDS011;57434;42.794;23.302;2022-10-30T04:20:39;9.97;;;5.57;;
70071;SDS011;57434;42.794;23.302;2022-10-30T04:23:07;9.50;;;5.60;;
70071;SDS011;57434;42.794;23.302;2022-10-30T04:25:38;15.15;;;5.40;;
70071;SDS011;57434;42.794;23.302;2022-10-30T04:28:05;11.70;;;5.07;;
70071;SDS011;57434;42.794;23.302;2022-10-30T04:30:32;12.50;;;6.75;;
70071;SDS011;57434;42.794;23.302;2022-10-30T04:32:59;13.03;;;5.53;;
70071;SDS011;57434;42.794;23.302;2022-10-30T04:35:29;11.52;;;5.50;;
70071;SDS011;57434;42.794;23.302;2022-10-30T04:37:59;13.15;;;5.53;;
70071;SDS011;57434;42.794;23.302;2022-10-30T04:40:28;14.57;;;5.85;;
70071;SDS011;57434;42.794;23.302;2022-10-30T04:42:59;12.30;;;5.55;;
70071;SDS011;57434;42.794;23.302;2022-10-30T04:45:26;13.33;;;5.90;;
70071;SDS011;57434;42.794;23.302;2022-10-30T04:47:59;18.85;;;7.57;;
70071;SDS011;57434;42.794;23.302;2022-10-30T04:50:27;12.32;;;5.57;;
70071;SDS011;57434;42.794;23.302;2022-10-30T04:53:01;10.38;;;5.13;;
70071;SDS011;57434;42.794;23.302;2022-10-30T04:55:30;13.73;;;5.57;;
70071;SDS011;57434;42.794;23.302;2022-10-30T04:57:57;11.53;;;5.00;;
70071;SDS011;57434;42.794;23.302;2022-10-30T05:00:26;15.88;;;5.88;;
70071;SDS011;57434;42.794;23.302;2022-10-30T05:02:57;12.07;;;5.10;;
70071;SDS011;57434;42.794;23.302;2022-10-30T05:05:25;12.90;;;5.70;;
70071;SDS011;57434;42.794;23.302;2022-10-30T05:07:53;12.15;;;4.97;;
70071;SDS011;57434;42.794;23.302;2022-10-30T05:10:21;10.83;;;4.97;;
70071;SDS011;57434;42.794;23.302;2022-10-30T05:12:49;12.77;;;6.20;;
70071;SDS011;57434;42.794;23.302;2022-10-30T05:15:18;17.83;;;6.78;;
70071;SDS011;57434;42.794;23.302;2022-10-30T05:17:45;17.15;;;9.32;;
70071;SDS011;57434;42.794;23.302;2022-10-30T05:20:17;17.45;;;8.80;;
70071;SDS011;57434;42.794;23.302;2022-10-30T05:22:45;19.30;;;8.27;;
70071;SDS011;57434;42.794;23.302;2022-10-30T05:25:12;19.40;;;7.88;;
70071;SDS011;57434;42.794;23.302;2022-10-30T05:27:39;14.63;;;6.50;;
70071;SDS011;57434;42.794;23.302;2022-10-30T05:30:06;13.02;;;6.53;;
70071;SDS011;57434;42.794;23.302;2022-10-30T05:32:33;14.88;;;6.93;;
70071;SDS011;57434;42.794;23.302;2022-10-30T05:35:00;20.97;;;8.43;;
70071;SDS011;57434;42.794;23.302;2022-10-30T05:37:28;13.95;;;6.45;;
70071;SDS011;57434;42.794;23.302;2022-10-30T05:39:55;15.02;;;7.80;;
70071;SDS011;57434;42.794;23.302;2022-10-30T05:42:22;17.13;;;7.70;;
70071;SDS011;57434;42.794;23.302;2022-10-30T05:44:49;17.73;;;8.32;;
70071;SDS011;57434;42.794;23.302;2022-10-30T05:47:31;17.80;;;7.60;;
70071;SDS011;57434;42.794;23.302;2022-10-30T05:49:58;17.52;;;7.38;;
70071;SDS011;57434;42.794;23.302;2022-10-30T05:52:25;18.92;;;7.05;;
70071;SDS011;57434;42.794;23.302;2022-10-30T05:54:52;16.98;;;7.07;;
70071;SDS011;57434;42.794;23.302;2022-10-30T05:57:19;16.67;;;7.97;;
70071;SDS011;57434;42.794;23.302;2022-10-30T05:59:47;12.70;;;6.27;;
70071;SDS011;57434;42.794;23.302;2022-10-30T06:02:17;15.95;;;6.20;;
70071;SDS011;57434;42.794;23.302;2022-10-30T06:04:44;16.08;;;7.18;;
70071;SDS011;57434;42.794;23.302;2022-10-30T06:07:11;17.70;;;8.32;;
70071;SDS011;57434;42.794;23.302;2022-10-30T06:09:38;24.70;;;11.85;;
70071;SDS011;57434;42.794;23.302;2022-10-30T06:12:07;22.40;;;12.40;;
70071;SDS011;57434;42.794;23.302;2022-10-30T06:14:34;28.38;;;12.75;;
70071;SDS011;57434;42.794;23.302;2022-10-30T06:17:01;21.17;;;11.13;;
70071;SDS011;57434;42.794;23.302;2022-10-30T06:19:28;20.77;;;10.63;;
70071;SDS011;57434;42.794;23.302;2022-10-30T06:21:55;20.05;;;10.55;;
70071;SDS011;57434;42.794;23.302;2022-10-30T06:24:22;16.87;;;9.73;;
70071;SDS011;57434;42.794;23.302;2022-10-30T06:26:50;17.52;;;9.05;;
70071;SDS011;57434;42.794;23.302;2022-10-30T06:29:17;26.88;;;12.88;;
70071;SDS011;57434;42.794;23.302;2022-10-30T06:31:44;17.35;;;9.43;;
70071;SDS011;57434;42.794;23.302;2022-10-30T06:34:11;17.50;;;9.25;;
70071;SDS011;57434;42.794;23.302;2022-10-30T06:36:38;12.50;;;7.60;;
70071;SDS011;57434;42.794;23.302;2022-10-30T06:39:05;16.77;;;8.65;;
70071;SDS011;57434;42.794;23.302;2022-10-30T06:41:32;18.33;;;8.75;;
70071;SDS011;57434;42.794;23.302;2022-10-30T06:43:59;24.33;;;8.32;;
70071;SDS011;57434;42.794;23.302;2022-10-30T06:46:26;14.95;;;8.43;;
70071;SDS011;57434;42.794;23.302;2022-10-30T06:48:59;17.33;;;9.00;;
70071;SDS011;57434;42.794;23.302;2022-10-30T06:51:26;13.45;;;6.97;;
70071;SDS011;57434;42.794;23.302;2022-10-30T06:53:53;20.55;;;11.20;;
70071;SDS011;57434;42.794;23.302;2022-10-30T06:56:20;14.57;;;7.88;;
70071;SDS011;57434;42.794;23.302;2022-10-30T06:58:47;17.35;;;8.57;;
70071;SDS011;57434;42.794;23.302;2022-10-30T07:01:14;15.50;;;8.53;;
70071;SDS011;57434;42.794;23.302;2022-10-30T07:03:41;18.35;;;9.75;;
70071;SDS011;57434;42.794;23.302;2022-10-30T07:06:08;18.17;;;8.95;;
70071;SDS011;57434;42.794;23.302;2022-10-30T07:08:36;16.80;;;8.90;;
70071;SDS011;57434;42.794;23.302;2022-10-30T07:11:03;15.15;;;9.10;;
70071;SDS011;57434;42.794;23.302;2022-10-30T07:13:30;15.87;;;9.33;;
70071;SDS011;57434;42.794;23.302;2022-10-30T07:15:57;23.13;;;11.00;;
70071;SDS011;57434;42.794;23.302;2022-10-30T07:18:25;19.00;;;11.55;;
70071;SDS011;57434;42.794;23.302;2022-10-30T07:20:55;19.50;;;9.38;;
70071;SDS011;57434;42.794;23.302;2022-10-30T07:23:22;20.80;;;11.07;;
70071;SDS011;57434;42.794;23.302;2022-10-30T07:25:49;20.30;;;11.47;;
70071;SDS011;57434;42.794;23.302;2022-10-30T07:28:16;29.27;;;14.82;;
70071;SDS011;57434;42.794;23.302;2022-10-30T07:30:43;14.75;;;8.80;;
70071;SDS011;57434;42.794;23.302;2022-10-30T07:33:10;17.30;;;9.15;;
70071;SDS011;57434;42.794;23.302;2022-10-30T07:35:37;15.15;;;8.13;;
70071;SDS011;57434;42.794;23.302;2022-10-30T07:38:05;17.57;;;8.07;;
70071;SDS011;57434;42.794;23.302;2022-10-30T07:40:35;15.38;;;7.93;;
70071;SDS011;57434;42.794;23.302;2022-10-30T07:43:03;14.73;;;7.15;;
70071;SDS011;57434;42.794;23.302;2022-10-30T07:45:31;15.73;;;8.27;;
70071;SDS011;57434;42.794;23.302;2022-10-30T07:47:58;17.38;;;9.65;;
70071;SDS011;57434;42.794;23.302;2022-10-30T07:50:26;17.83;;;9.67;;
70071;SDS011;57434;42.794;23.302;2022-10-30T07:52:53;12.73;;;7.75;;
70071;SDS011;57434;42.794;23.302;2022-10-30T07:55:20;13.93;;;8.40;;
70071;SDS011;57434;42.794;23.302;2022-10-30T07:57:47;16.65;;;8.00;;
70071;SDS011;57434;42.794;23.302;2022-10-30T08:00:15;23.90;;;12.93;;
70071;SDS011;57434;42.794;23.302;2022-10-30T08:02:43;16.30;;;8.13;;
70071;SDS011;57434;42.794;23.302;2022-10-30T08:05:15;16.33;;;9.13;;
70071;SDS011;57434;42.794;23.302;2022-10-30T08:07:44;26.48;;;11.35;;
70071;SDS011;57434;42.794;23.302;2022-10-30T08:10:12;18.70;;;9.23;;
70071;SDS011;57434;42.794;23.302;2022-10-30T08:12:40;18.15;;;10.00;;
70071;SDS011;57434;42.794;23.302;2022-10-30T08:15:07;19.57;;;10.70;;
70071;SDS011;57434;42.794;23.302;2022-10-30T08:17:41;14.73;;;7.38;;
70071;SDS011;57434;42.794;23.302;2022-10-30T08:20:10;19.13;;;11.05;;
70071;SDS011;57434;42.794;23.302;2022-10-30T08:22:45;15.75;;;8.20;;
70071;SDS011;57434;42.794;23.302;2022-10-30T08:25:14;11.68;;;6.57;;
70071;SDS011;57434;42.794;23.302;2022-10-30T08:27:56;12.83;;;7.10;;
70071;SDS011;57434;42.794;23.302;2022-10-30T08:30:33;13.50;;;7.07;;
70071;SDS011;57434;42.794;23.302;2022-10-30T08:33:06;22.33;;;13.32;;
70071;SDS011;57434;42.794;23.302;2022-10-30T08:35:38;53.05;;;28.60;;
70071;SDS011;57434;42.794;23.302;2022-10-30T08:38:12;18.25;;;10.32;;
70071;SDS011;57434;42.794;23.302;2022-10-30T08:40:39;16.33;;;6.70;;
70071;SDS011;57434;42.794;23.302;2022-10-30T08:43:06;10.80;;;6.68;;
70071;SDS011;57434;42.794;23.302;2022-10-30T08:45:34;16.38;;;7.97;;
70071;SDS011;57434;42.794;23.302;2022-10-30T08:48:02;12.32;;;7.18;;
70071;SDS011;57434;42.794;23.302;2022-10-30T08:50:31;12.55;;;7.43;;
70071;SDS011;57434;42.794;23.302;2022-10-30T08:52:59;11.23;;;7.30;;
70071;SDS011;57434;42.794;23.302;2022-10-30T08:55:29;16.13;;;7.75;;
70071;SDS011;57434;42.794;23.302;2022-10-30T08:57:59;11.88;;;6.85;;
70071;SDS011;57434;42.794;23.302;2022-10-30T09:00:27;14.10;;;6.65;;
70071;SDS011;57434;42.794;23.302;2022-10-30T09:02:55;13.80;;;6.65;;
70071;SDS011;57434;42.794;23.302;2022-10-30T09:05:25;13.03;;;7.70;;
70071;SDS011;57434;42.794;23.302;2022-10-30T09:07:56;13.38;;;6.80;;
70071;SDS011;57434;42.794;23.302;2022-10-30T09:10:24;19.52;;;8.52;;
70071;SDS011;57434;42.794;23.302;2022-10-30T09:12:55;16.33;;;8.63;;
70071;SDS011;57434;42.794;23.302;2022-10-30T09:15:24;15.32;;;6.95;;
70071;SDS011;57434;42.794;23.302;2022-10-30T09:17:58;11.97;;;6.40;;
70071;SDS011;57434;42.794;23.302;2022-10-30T09:20:27;14.43;;;6.95;;
70071;SDS011;57434;42.794;23.302;2022-10-30T09:22:55;14.45;;;6.68;;
70071;SDS011;57434;42.794;23.302;2022-10-30T09:25:23;12.88;;;6.65;;
70071;SDS011;57434;42.794;23.302;2022-10-30T09:27:50;13.68;;;6.80;;
70071;SDS011;57434;42.794;23.302;2022-10-30T09:30:18;11.93;;;6.93;;
70071;SDS011;57434;42.794;23.302;2022-10-30T09:32:45;13.00;;;6.72;;
70071;SDS011;57434;42.794;23.302;2022-10-30T09:35:20;16.33;;;7.57;;
70071;SDS011;57434;42.794;23.302;2022-10-30T09:37:47;15.30;;;8.00;;
70071;SDS011;57434;42.794;23.302;2022-10-30T09:40:20;12.38;;;7.50;;
70071;SDS011;57434;42.794;23.302;2022-10-30T09:54:06;13.02;;;6.50;;
70071;SDS011;57434;42.794;23.302;2022-10-30T09:56:43;10.83;;;6.27;;
70071;SDS011;57434;42.794;23.302;2022-10-30T10:02:03;15.48;;;9.27;;
70071;SDS011;57434;42.794;23.302;2022-10-30T10:04:58;20.75;;;10.90;;
70071;SDS011;57434;42.794;23.302;2022-10-30T10:07:47;15.50;;;6.78;;
70071;SDS011;57434;42.794;23.302;2022-10-30T10:10:32;8.83;;;5.57;;
70071;SDS011;57434;42.794;23.302;2022-10-30T10:13:06;10.60;;;6.22;;
70071;SDS011;57434;42.794;23.302;2022-10-30T10:15:54;12.98;;;7.20;;
70071;SDS011;57434;42.794;23.302;2022-10-30T10:18:27;13.50;;;7.00;;
70071;SDS011;57434;42.794;23.302;2022-10-30T10:21:00;11.20;;;6.60;;
70071;SDS011;57434;42.794;23.302;2022-10-30T10:23:37;18.23;;;7.57;;
70071;SDS011;57434;42.794;23.302;2022-10-30T10:29:16;11.93;;;6.97;;
70071;SDS011;57434;42.794;23.302;2022-10-30T10:32:02;11.00;;;6.25;;
70071;SDS011;57434;42.794;23.302;2022-10-30T10:37:37;13.53;;;5.93;;
70071;SDS011;57434;42.794;23.302;2022-10-30T10:43:03;11.20;;;5.50;;
70071;SDS011;57434;42.794;23.302;2022-10-30T10:51:16;14.20;;;6.43;;
70071;SDS011;57434;42.794;23.302;2022-10-30T10:53:57;14.32;;;7.65;;
70071;SDS011;57434;42.794;23.302;2022-10-30T10:56:35;25.10;;;13.77;;
70071;SDS011;57434;42.794;23.302;2022-10-30T10:59:11;11.77;;;6.07;;
70071;SDS011;57434;42.794;23.302;2022-10-30T11:01:44;10.25;;;5.65;;
70071;SDS011;57434;42.794;23.302;2022-10-30T11:04:19;10.93;;;5.80;;
70071;SDS011;57434;42.794;23.302;2022-10-30T11:10:12;10.95;;;5.28;;
70071;SDS011;57434;42.794;23.302;2022-10-30T11:12:41;10.93;;;6.53;;
70071;SDS011;57434;42.794;23.302;2022-10-30T11:15:25;19.30;;;13.15;;
70071;SDS011;57434;42.794;23.302;2022-10-30T11:18:16;16.40;;;5.90;;
70071;SDS011;57434;42.794;23.302;2022-10-30T11:20:58;10.57;;;5.53;;
70071;SDS011;57434;42.794;23.302;2022-10-30T11:23:51;12.65;;;6.57;;
70071;SDS011;57434;42.794;23.302;2022-10-30T11:26:30;12.65;;;6.78;;
70071;SDS011;57434;42.794;23.302;2022-10-30T11:29:13;9.63;;;5.65;;
70071;SDS011;57434;42.794;23.302;2022-10-30T11:32:03;12.83;;;6.73;;
70071;SDS011;57434;42.794;23.302;2022-10-30T11:35:07;8.50;;;4.68;;
70071;SDS011;57434;42.794;23.302;2022-10-30T11:38:13;8.10;;;5.05;;
70071;SDS011;57434;42.794;23.302;2022-10-30T11:40:48;12.35;;;6.55;;
70071;SDS011;57434;42.794;23.302;2022-10-30T11:43:22;9.40;;;4.93;;
70071;SDS011;57434;42.794;23.302;2022-10-30T11:45:57;10.37;;;5.63;;
70071;SDS011;57434;42.794;23.302;2022-10-30T11:48:31;9.13;;;4.90;;
70071;SDS011;57434;42.794;23.302;2022-10-30T11:51:06;11.70;;;4.55;;
70071;SDS011;57434;42.794;23.302;2022-10-30T11:53:46;7.38;;;3.53;;
70071;SDS011;57434;42.794;23.302;2022-10-30T11:56:24;8.60;;;3.42;;
70071;SDS011;57434;42.794;23.302;2022-10-30T11:59:00;10.20;;;3.70;;
70071;SDS011;57434;42.794;23.302;2022-10-30T12:01:38;8.23;;;4.30;;
70071;SDS011;57434;42.794;23.302;2022-10-30T12:04:29;12.98;;;3.88;;
70071;SDS011;57434;42.794;23.302;2022-10-30T12:07:07;7.13;;;2.92;;
70071;SDS011;57434;42.794;23.302;2022-10-30T12:09:53;7.90;;;3.00;;
70071;SDS011;57434;42.794;23.302;2022-10-30T12:12:34;9.27;;;2.50;;
70071;SDS011;57434;42.794;23.302;2022-10-30T12:17:54;6.60;;;3.00;;
70071;SDS011;57434;42.794;23.302;2022-10-30T12:20:32;9.32;;;2.72;;
70071;SDS011;57434;42.794;23.302;2022-10-30T12:23:13;4.78;;;2.38;;
70071;SDS011;57434;42.794;23.302;2022-10-30T12:25:48;63.63;;;35.83;;
70071;SDS011;57434;42.794;23.302;2022-10-30T12:28:29;8.15;;;3.58;;
70071;SDS011;57434;42.794;23.302;2022-10-30T12:31:13;7.90;;;2.88;;
70071;SDS011;57434;42.794;23.302;2022-10-30T12:36:58;8.70;;;4.03;;
70071;SDS011;57434;42.794;23.302;2022-10-30T12:42:37;9.52;;;3.10;;
70071;SDS011;57434;42.794;23.302;2022-10-30T12:45:19;9.45;;;5.03;;
70071;SDS011;57434;42.794;23.302;2022-10-30T12:48:02;5.00;;;2.13;;
70071;SDS011;57434;42.794;23.302;2022-10-30T12:51:00;5.45;;;1.60;;
70071;SDS011;57434;42.794;23.302;2022-10-30T12:53:53;4.30;;;1.70;;
70071;SDS011;57434;42.794;23.302;2022-10-30T12:56:46;4.22;;;1.25;;
70071;SDS011;57434;42.794;23.302;2022-10-30T12:59:47;6.57;;;1.80;;
70071;SDS011;57434;42.794;23.302;2022-10-30T13:03:05;5.15;;;1.40;;
70071;SDS011;57434;42.794;23.302;2022-10-30T13:11:58;10.07;;;3.13;;
70071;SDS011;57434;42.794;23.302;2022-10-30T13:14:39;6.38;;;1.40;;
70071;SDS011;57434;42.794;23.302;2022-10-30T13:17:22;8.45;;;1.20;;
70071;SDS011;57434;42.794;23.302;2022-10-30T13:20:04;6.50;;;1.67;;
70071;SDS011;57434;42.794;23.302;2022-10-30T13:22:56;5.43;;;1.80;;
70071;SDS011;57434;42.794;23.302;2022-10-30T13:25:58;31.13;;;11.02;;
70071;SDS011;57434;42.794;23.302;2022-10-30T13:31:30;40.08;;;14.75;;
70071;SDS011;57434;42.794;23.302;2022-10-30T13:34:05;8.45;;;2.53;;
70071;SDS011;57434;42.794;23.302;2022-10-30T13:37:07;8.80;;;2.47;;
70071;SDS011;57434;42.794;23.302;2022-10-30T13:40:31;7.80;;;2.15;;
70071;SDS011;57434;42.794;23.302;2022-10-30T13:51:40;28.70;;;10.10;;
70071;SDS011;57434;42.794;23.302;2022-10-30T13:56:43;62.20;;;21.08;;
70071;SDS011;57434;42.794;23.302;2022-10-30T13:59:16;55.55;;;16.50;;
70071;SDS011;57434;42.794;23.302;2022-10-30T14:02:01;81.47;;;21.85;;
70071;SDS011;57434;42.794;23.302;2022-10-30T14:07:45;139.27;;;48.03;;
70071;SDS011;57434;42.794;23.302;2022-10-30T14:10:35;67.50;;;24.60;;
70071;SDS011;57434;42.794;23.302;2022-10-30T14:15:53;70.85;;;22.77;;
70071;SDS011;57434;42.794;23.302;2022-10-30T14:19:11;41.33;;;15.83;;
70071;SDS011;57434;42.794;23.302;2022-10-30T14:21:37;58.67;;;20.65;;
70071;SDS011;57434;42.794;23.302;2022-10-30T14:26:54;46.00;;;15.48;;
70071;SDS011;57434;42.794;23.302;2022-10-30T14:29:40;36.72;;;13.60;;
70071;SDS011;57434;42.794;23.302;2022-10-30T14:37:16;27.83;;;10.15;;
70071;SDS011;57434;42.794;23.302;2022-10-30T14:39:50;30.15;;;10.48;;
70071;SDS011;57434;42.794;23.302;2022-10-30T14:45:24;20.17;;;8.67;;
70071;SDS011;57434;42.794;23.302;2022-10-30T14:51:02;37.08;;;13.30;;
70071;SDS011;57434;42.794;23.302;2022-10-30T15:01:45;8.35;;;3.30;;
70071;SDS011;57434;42.794;23.302;2022-10-30T15:15:11;10.20;;;4.38;;
70071;SDS011;57434;42.794;23.302;2022-10-30T15:17:42;21.13;;;7.03;;
70071;SDS011;57434;42.794;23.302;2022-10-30T15:20:33;19.40;;;7.70;;
70071;SDS011;57434;42.794;23.302;2022-10-30T15:23:01;15.60;;;7.07;;
70071;SDS011;57434;42.794;23.302;2022-10-30T15:25:35;9.97;;;3.23;;
70071;SDS011;57434;42.794;23.302;2022-10-30T15:28:12;8.40;;;3.38;;
70071;SDS011;57434;42.794;23.302;2022-10-30T15:31:06;19.30;;;8.52;;
70071;SDS011;57434;42.794;23.302;2022-10-30T15:33:39;17.75;;;8.02;;
70071;SDS011;57434;42.794;23.302;2022-10-30T15:38:52;13.07;;;5.83;;
70071;SDS011;57434;42.794;23.302;2022-10-30T15:41:41;12.98;;;5.30;;
70071;SDS011;57434;42.794;23.302;2022-10-30T15:44:36;14.10;;;6.65;;
70071;SDS011;57434;42.794;23.302;2022-10-30T15:47:09;12.85;;;5.85;;
70071;SDS011;57434;42.794;23.302;2022-10-30T15:49:50;8.77;;;4.03;;
70071;SDS011;57434;42.794;23.302;2022-10-30T15:52:26;10.80;;;3.50;;
70071;SDS011;57434;42.794;23.302;2022-10-30T15:55:01;7.10;;;3.08;;
70071;SDS011;57434;42.794;23.302;2022-10-30T15:57:36;6.50;;;2.58;;
70071;SDS011;57434;42.794;23.302;2022-10-30T16:00:32;11.05;;;3.30;;
70071;SDS011;57434;42.794;23.302;2022-10-30T16:05:31;9.47;;;3.37;;
70071;SDS011;57434;42.794;23.302;2022-10-30T16:07:59;10.15;;;3.47;;
70071;SDS011;57434;42.794;23.302;2022-10-30T16:10:33;11.63;;;3.90;;
70071;SDS011;57434;42.794;23.302;2022-10-30T16:13:01;13.75;;;5.47;;
70071;SDS011;57434;42.794;23.302;2022-10-30T16:15:30;11.85;;;4.75;;
70071;SDS011;57434;42.794;23.302;2022-10-30T16:18:14;9.90;;;3.80;;
70071;SDS011;57434;42.794;23.302;2022-10-30T16:20:49;13.38;;;3.88;;
70071;SDS011;57434;42.794;23.302;2022-10-30T16:23:21;11.43;;;4.68;;
70071;SDS011;57434;42.794;23.302;2022-10-30T16:25:52;18.92;;;5.00;;
70071;SDS011;57434;42.794;23.302;2022-10-30T16:28:31;13.45;;;4.97;;
70071;SDS011;57434;42.794;23.302;2022-10-30T16:31:02;17.10;;;5.60;;
70071;SDS011;57434;42.794;23.302;2022-10-30T16:33:32;11.15;;;4.53;;
70071;SDS011;57434;42.794;23.302;2022-10-30T16:36:02;12.90;;;4.63;;
70071;SDS011;57434;42.794;23.302;2022-10-30T16:38:33;10.05;;;4.40;;
70071;SDS011;57434;42.794;23.302;2022-10-30T16:41:06;17.13;;;4.75;;
70071;SDS011;57434;42.794;23.302;2022-10-30T16:43:34;12.57;;;4.77;;
70071;SDS011;57434;42.794;23.302;2022-10-30T16:48:45;11.93;;;5.40;;
70071;SDS011;57434;42.794;23.302;2022-10-30T16:51:19;13.93;;;6.43;;
70071;SDS011;57434;42.794;23.302;2022-10-30T16:53:47;29.05;;;8.00;;
70071;SDS011;57434;42.794;23.302;2022-10-30T16:56:29;26.67;;;10.00;;
70071;SDS011;57434;42.794;23.302;2022-10-30T16:59:43;20.60;;;8.55;;
70071;SDS011;57434;42.794;23.302;2022-10-30T17:01:57;16.60;;;6.70;;
70071;SDS011;57434;42.794;23.302;2022-10-30T17:04:27;14.35;;;6.47;;
70071;SDS011;57434;42.794;23.302;2022-10-30T17:07:28;15.60;;;6.00;;
70071;SDS011;57434;42.794;23.302;2022-10-30T17:09:52;15.10;;;5.90;;